Time;durP1;ratioP1;P1;durP2;ratioP2;P2;SDS_P1;SDS_P2;PMS_P1;PMS_P2;Temp;Humidity;BMP_temperature;BMP_pressure;BME280_temperature;BME280_humidity;BME280_pressure;Samples;Min_cycle;Max_cycle;Signal;HPM_P1;HPM_P2
2022/04/06 00:02:19;;;;;;;19.20;13.30;;;;;;;9.53;46.01;99921.35;117366;1185;23442;-58
2022/04/06 00:05:01;;;;;;;19.20;12.90;;;;;;;9.58;46.05;99922.85;117349;1185;23482;-58
2022/04/06 00:07:30;;;;;;;15.40;13.00;;;;;;;9.64;46.03;99929.42;117372;1185;21855;-49
2022/04/06 00:10:01;;;;;;;22.00;13.50;;;;;;;9.67;46.03;99930.78;117341;1185;22619;-50
2022/04/06 00:12:32;;;;;;;21.30;13.90;;;;;;;9.68;46.06;99932.88;117380;1185;21854;-49
2022/04/06 00:15:02;;;;;;;18.50;13.50;;;;;;;9.69;46.02;99935.30;117373;1185;21857;-59
2022/04/06 00:17:30;;;;;;;17.40;12.80;;;;;;;9.71;46.08;99940.36;117466;1185;21849;-58
2022/04/06 00:19:59;;;;;;;20.00;14.70;;;;;;;9.71;46.09;99942.46;117373;1185;23471;-48
2022/04/06 00:22:28;;;;;;;16.90;13.70;;;;;;;9.69;46.01;99944.76;117385;1185;24268;-48
2022/04/06 00:24:58;;;;;;;19.10;14.20;;;;;;;9.68;46.08;99946.88;117398;1185;21880;-58
2022/04/06 00:27:46;;;;;;;20.70;14.10;;;;;;;9.65;46.05;99952.70;117340;1182;23551;-59
2022/04/06 00:30:15;;;;;;;19.80;13.70;;;;;;;9.61;46.27;99956.08;117228;1185;22783;-49
2022/04/06 00:32:44;;;;;;;18.80;14.00;;;;;;;9.61;46.12;99959.94;117242;1185;23277;-58
2022/04/06 00:35:28;;;;;;;21.50;15.70;;;;;;;9.58;46.09;99959.46;117412;1186;22649;-59
2022/04/06 00:38:00;;;;;;;23.30;16.30;;;;;;;9.54;46.13;99961.80;117160;1186;23950;-47
2022/04/06 00:40:29;;;;;;;22.20;17.10;;;;;;;9.51;46.24;99957.10;117226;1184;22930;-58
2022/04/06 00:43:05;;;;;;;23.40;17.50;;;;;;;9.53;46.33;99954.80;117253;1186;22834;-58
2022/04/06 00:45:33;;;;;;;21.70;17.50;;;;;;;9.51;46.35;99955.36;117232;1186;21860;-48
2022/04/06 00:48:02;;;;;;;23.00;18.10;;;;;;;9.46;46.37;99961.58;117225;1187;21853;-59
2022/04/06 00:50:30;;;;;;;23.20;18.30;;;;;;;9.47;46.39;99962.08;117235;1185;21951;-58
2022/04/06 00:52:59;;;;;;;25.80;19.00;;;;;;;9.49;46.50;99965.55;117126;1186;23469;-49
2022/04/06 00:55:39;;;;;;;21.60;19.10;;;;;;;9.50;46.46;99967.29;117245;1187;23469;-59
2022/04/06 00:58:08;;;;;;;21.00;17.90;;;;;;;9.53;46.55;99968.98;117234;1185;22658;-49
2022/04/06 01:00:39;;;;;;;22.30;18.40;;;;;;;9.59;46.42;99972.23;117253;1186;23458;-58
2022/04/06 01:03:09;;;;;;;24.70;20.30;;;;;;;9.61;46.46;99971.67;117299;1185;23447;-59
2022/04/06 01:05:37;;;;;;;23.40;19.40;;;;;;;9.63;46.40;99969.91;117357;1185;21890;-58
2022/04/06 01:08:08;;;;;;;30.00;20.70;;;;;;;9.62;46.45;99970.27;117130;1185;24237;-58
2022/04/06 01:10:37;;;;;;;25.70;22.00;;;;;;;9.58;46.43;99972.24;117177;1186;23447;-48
2022/04/06 01:13:05;;;;;;;30.10;22.10;;;;;;;9.57;46.41;99973.66;117258;1184;23002;-47
2022/04/06 01:15:33;;;;;;;28.20;21.00;;;;;;;9.54;46.38;99974.58;117142;1186;21858;-57
2022/04/06 01:18:02;;;;;;;27.80;21.90;;;;;;;9.50;46.39;99972.02;117239;1185;22970;-47
2022/04/06 01:20:31;;;;;;;26.90;21.40;;;;;;;9.45;46.32;99970.88;117244;1186;24159;-47
2022/04/06 01:23:19;;;;;;;24.40;21.80;;;;;;;9.37;46.41;99973.94;117201;1185;23446;-55
2022/04/06 01:25:48;;;;;;;26.00;20.30;;;;;;;9.31;46.27;99973.31;117250;1183;21859;-47
2022/04/06 01:28:17;;;;;;;23.90;20.20;;;;;;;9.26;46.39;99977.61;117148;1186;22985;-47
2022/04/06 01:30:46;;;;;;;28.50;21.90;;;;;;;9.19;46.48;99978.03;117258;1186;24171;-56
2022/04/06 01:33:14;;;;;;;26.20;21.20;;;;;;;9.14;46.42;99975.64;117257;1186;23483;-57
2022/04/06 01:35:43;;;;;;;28.80;21.00;;;;;;;9.01;46.51;99977.91;117218;1186;22950;-47
2022/04/06 01:38:14;;;;;;;26.30;20.80;;;;;;;8.91;46.53;99980.83;117279;1187;21867;-56
2022/04/06 01:40:42;;;;;;;26.40;21.10;;;;;;;8.84;46.60;99979.34;117274;1186;23566;-56
2022/04/06 01:43:12;;;;;;;;;;;;;;;8.77;46.54;99981.34;117175;1187;21887;-57
2022/04/06 01:45:41;;;;;;;27.60;19.20;;;;;;;8.71;46.53;99980.71;117246;1187;23542;-57
2022/04/06 01:48:13;;;;;;;24.90;19.80;;;;;;;8.66;46.57;99979.19;117310;1186;23446;-47
2022/04/06 01:53:31;;;;;;;23.80;18.90;;;;;;;8.48;46.55;99988.27;117205;1186;23477;-49
2022/04/06 01:56:02;;;;;;;23.30;18.80;;;;;;;8.41;46.50;99981.34;117136;1186;23538;-59
2022/04/06 01:58:30;;;;;;;25.60;19.40;;;;;;;8.33;46.56;99982.11;117294;1185;24186;-49
2022/04/06 02:01:00;;;;;;;32.40;19.00;;;;;;;8.25;46.55;99991.79;117301;1189;23475;-59
2022/04/06 02:03:29;;;;;;;26.50;19.30;;;;;;;8.21;46.79;99989.56;116974;1190;21877;-58
2022/04/06 02:05:59;;;;;;;22.30;19.70;;;;;;;8.17;46.33;99988.37;117253;1185;21868;-49
2022/04/06 02:08:28;;;;;;;23.70;18.40;;;;;;;8.14;46.58;99996.10;117248;1186;23447;-59
2022/04/06 02:10:56;;;;;;;23.90;18.70;;;;;;;8.13;46.60;99993.14;117291;1186;21865;-49
2022/04/06 02:13:26;;;;;;;23.00;18.90;;;;;;;8.10;46.50;99999.44;117318;1186;21851;-49
2022/04/06 02:15:55;;;;;;;26.80;19.00;;;;;;;8.09;46.49;100002.42;117179;1185;21870;-49
2022/04/06 02:18:24;;;;;;;22.30;17.00;;;;;;;8.07;46.63;100000.17;117341;1185;23571;-59
2022/04/06 02:20:53;;;;;;;20.70;17.80;;;;;;;8.08;46.65;100002.08;117220;1186;24161;-59
2022/04/06 02:23:22;;;;;;;21.80;18.50;;;;;;;8.08;46.68;100010.82;117269;1185;21854;-59
2022/04/06 02:25:51;;;;;;;24.10;18.30;;;;;;;8.05;46.66;100003.33;117206;1186;21874;-49
2022/04/06 02:28:20;;;;;;;20.70;16.00;;;;;;;8.01;46.57;100004.75;117283;1185;21860;-59
2022/04/06 02:30:49;;;;;;;22.00;17.30;;;;;;;7.97;46.55;100004.08;117316;1186;23496;-58
2022/04/06 02:33:19;;;;;;;23.30;17.30;;;;;;;7.95;46.53;100004.10;117329;1185;21849;-60
2022/04/06 02:35:49;;;;;;;25.20;17.40;;;;;;;7.92;46.61;100002.02;117289;1185;21836;-59
2022/04/06 02:38:18;;;;;;;21.20;16.10;;;;;;;7.89;46.72;100003.27;117328;1186;22976;-49
2022/04/06 02:40:47;;;;;;;23.10;17.10;;;;;;;7.88;46.92;100008.52;117344;1186;23484;-59
2022/04/06 02:43:17;;;;;;;21.10;16.70;;;;;;;7.88;46.73;100003.45;117350;1185;24217;-59
2022/04/06 02:45:47;;;;;;;19.90;15.40;;;;;;;7.86;46.62;100004.52;117350;1185;23653;-49
2022/04/06 02:48:18;;;;;;;20.20;16.10;;;;;;;7.83;46.78;100005.41;117336;1186;21844;-60
2022/04/06 02:50:46;;;;;;;20.70;16.00;;;;;;;7.81;46.81;100015.20;117165;1186;23552;-49
2022/04/06 02:53:15;;;;;;;25.40;16.30;;;;;;;7.78;46.94;100020.98;117347;1186;21968;-59
2022/04/06 02:55:46;;;;;;;21.50;16.00;;;;;;;7.75;46.89;100022.05;117258;1186;21891;-59
2022/04/06 02:58:16;;;;;;;21.20;16.70;;;;;;;7.73;47.11;100026.78;117292;1186;23450;-49
2022/04/06 03:00:44;;;;;;;19.40;15.70;;;;;;;7.71;46.94;100027.85;117366;1186;22914;-59
2022/04/06 03:03:13;;;;;;;19.00;16.30;;;;;;;7.66;47.07;100029.80;117290;1186;23891;-59
2022/04/06 03:05:42;;;;;;;19.70;15.10;;;;;;;7.64;46.89;100035.75;117273;1186;23450;-60
2022/04/06 03:08:29;;;;;;;18.20;15.30;;;;;;;7.59;46.86;100038.03;117099;1186;24211;-60
2022/04/06 03:10:57;;;;;;;21.80;16.80;;;;;;;7.55;47.01;100042.77;117272;1183;21895;-50
2022/04/06 03:13:38;;;;;;;24.80;18.10;;;;;;;7.51;47.01;100048.39;117222;1186;24171;-61
2022/04/06 03:16:07;;;;;;;24.50;16.90;;;;;;;7.49;47.15;100050.50;117241;1186;23538;-49
2022/04/06 03:18:36;;;;;;;20.30;16.20;;;;;;;7.48;47.04;100051.20;117306;1188;24172;-61
2022/04/06 03:21:05;;;;;;;23.70;16.40;;;;;;;7.46;47.16;100055.23;117401;1186;22312;-59
2022/04/06 03:23:33;;;;;;;25.10;16.70;;;;;;;7.43;47.18;100055.94;117279;1185;23473;-50
2022/04/06 03:26:01;;;;;;;22.10;16.70;;;;;;;7.40;47.31;100054.38;117236;1186;24549;-47
2022/04/06 03:28:30;;;;;;;22.60;16.70;;;;;;;7.38;47.31;100060.84;117344;1185;23476;-47
2022/04/06 03:31:00;;;;;;;24.10;16.50;;;;;;;7.38;47.28;100063.80;117309;1186;24227;-50
2022/04/06 03:33:29;;;;;;;21.80;16.50;;;;;;;7.37;47.37;100066.61;117251;1186;22978;-48
2022/04/06 03:35:58;;;;;;;19.50;15.70;;;;;;;7.39;47.37;100069.39;117347;1185;22639;-48
2022/04/06 03:38:27;;;;;;;20.50;16.00;;;;;;;7.42;47.37;100070.07;117344;1188;23473;-59
2022/04/06 03:40:55;;;;;;;20.40;15.80;;;;;;;7.47;47.58;100072.86;117219;1186;23476;-58
2022/04/06 03:43:24;;;;;;;25.20;16.90;;;;;;;7.48;47.29;100074.24;117333;1189;23446;-48
2022/04/06 03:45:54;;;;;;;21.00;16.00;;;;;;;7.46;47.32;100079.31;117380;1179;21836;-48
2022/04/06 03:48:23;;;;;;;21.70;15.30;;;;;;;7.47;47.32;100082.46;117326;1186;23513;-49
2022/04/06 03:50:51;;;;;;;23.20;15.00;;;;;;;7.47;47.25;100083.16;117286;1186;22929;-49
2022/04/06 03:53:21;;;;;;;21.10;14.90;;;;;;;7.44;47.39;100086.48;117310;1186;23488;-49
2022/04/06 03:55:52;;;;;;;23.00;14.50;;;;;;;7.46;47.37;100086.48;117326;1186;21878;-49
2022/04/06 03:58:21;;;;;;;21.50;14.10;;;;;;;7.48;47.34;100084.38;117289;1186;23541;-60
2022/04/06 04:00:49;;;;;;;19.90;14.50;;;;;;;7.47;47.44;100083.85;117330;1186;23447;-59
2022/04/06 04:03:18;;;;;;;22.60;13.20;;;;;;;7.49;47.32;100087.16;117261;1186;23468;-59
2022/04/06 04:05:53;;;;;;;19.10;14.40;;;;;;;7.49;47.55;100095.89;117312;1184;23539;-56
2022/04/06 04:08:22;;;;;;;21.80;13.20;;;;;;;7.48;47.40;100099.73;117285;1186;23465;-59
2022/04/06 04:10:52;;;;;;;17.70;14.10;;;;;;;7.47;47.25;100108.48;117110;1186;23477;-49
2022/04/06 04:13:20;;;;;;;16.80;13.70;;;;;;;7.46;47.28;100111.27;117255;1185;21856;-59
2022/04/06 04:15:49;;;;;;;21.10;15.30;;;;;;;7.49;47.64;100114.40;117314;1182;21835;-60
2022/04/06 04:18:20;;;;;;;18.90;13.40;;;;;;;7.50;47.93;100115.63;117367;1182;21864;-59
2022/04/06 04:24:00;;;;;;;17.60;12.70;;;;;;;7.59;47.65;100114.35;117275;1186;24690;-60
2022/04/06 04:26:29;;;;;;;17.70;13.70;;;;;;;7.63;47.98;100117.47;117310;1189;21891;-59
2022/04/06 04:28:58;;;;;;;18.40;15.00;;;;;;;7.68;47.87;100120.77;117317;1187;22927;-60
2022/04/06 04:31:26;;;;;;;23.00;14.90;;;;;;;7.72;47.93;100121.45;117328;1188;22826;-58
2022/04/06 04:34:02;;;;;;;18.30;14.50;;;;;;;7.78;48.00;100125.61;117397;1188;21850;-47
2022/04/06 04:36:31;;;;;;;22.70;15.80;;;;;;;7.83;47.81;100129.08;117394;1186;24173;-48
2022/04/06 04:39:07;;;;;;;21.40;15.60;;;;;;;7.91;48.09;100129.39;117260;1186;23507;-58
2022/04/06 04:41:36;;;;;;;22.30;16.50;;;;;;;8.00;48.22;100122.00;117331;1185;21891;-58
2022/04/06 04:44:05;;;;;;;23.60;16.70;;;;;;;8.13;48.38;100121.23;117250;1185;24179;-47
2022/04/06 04:46:34;;;;;;;22.40;17.50;;;;;;;8.25;48.51;100119.94;118768;1185;21989;-48
2022/04/06 04:49:03;;;;;;;24.70;17.50;;;;;;;8.34;48.37;100130.88;117168;1185;23654;-58
2022/04/06 04:51:31;;;;;;;25.90;18.20;;;;;;;8.45;48.43;100131.48;117287;1185;24163;-58
2022/04/06 04:54:00;;;;;;;25.80;17.90;;;;;;;8.54;48.66;100129.02;117332;1186;23463;-49
2022/04/06 04:56:30;;;;;;;24.70;18.30;;;;;;;8.66;48.57;100129.26;117422;1185;21836;-50
2022/04/06 04:59:00;;;;;;;23.10;16.80;;;;;;;8.77;48.64;100132.84;117322;1186;21852;-49
2022/04/06 05:01:30;;;;;;;24.30;16.90;;;;;;;8.88;48.84;100136.42;117255;1186;21838;-48
2022/04/06 05:03:58;;;;;;;26.10;18.00;;;;;;;9.01;48.88;100135.08;117125;1186;23576;-59
2022/04/06 05:06:28;;;;;;;21.20;15.80;;;;;;;9.12;48.80;100141.27;117306;1186;21864;-59
2022/04/06 05:08:57;;;;;;;21.70;16.40;;;;;;;9.24;48.88;100145.17;117108;1186;23552;-59
2022/04/06 05:11:27;;;;;;;24.90;18.90;;;;;;;9.35;48.93;100148.02;117367;1185;23451;-59
2022/04/06 05:13:55;;;;;;;21.90;16.80;;;;;;;9.46;48.85;100153.52;117427;1186;23550;-49
2022/04/06 05:16:23;;;;;;;22.40;16.50;;;;;;;9.56;49.00;100156.72;117265;1186;23449;-49
2022/04/06 05:18:54;;;;;;;33.30;17.10;;;;;;;9.67;49.02;100160.27;117237;1186;23453;-49
2022/04/06 05:21:28;;;;;;;22.20;17.60;;;;;;;9.81;49.07;100159.73;117209;1186;23597;-49
2022/04/06 05:23:59;;;;;;;21.70;15.70;;;;;;;9.96;49.17;100159.21;117265;1189;21861;-59
2022/04/06 05:26:28;;;;;;;28.20;17.80;;;;;;;10.10;49.26;100160.09;117244;1186;24277;-60
2022/04/06 05:28:57;;;;;;;19.50;16.80;;;;;;;10.23;49.24;100160.06;117327;1185;24169;-59
2022/04/06 05:31:25;;;;;;;21.80;16.00;;;;;;;10.36;49.31;100158.66;117281;1186;22965;-59
2022/04/06 05:33:54;;;;;;;21.60;15.60;;;;;;;10.50;49.38;100162.33;117342;1185;21883;-59
2022/04/06 05:36:24;;;;;;;16.90;14.40;;;;;;;10.63;49.35;100160.38;117315;1185;23579;-49
2022/04/06 05:38:54;;;;;;;20.70;14.20;;;;;;;10.78;49.34;100162.42;117212;1184;24174;-59
2022/04/06 05:41:22;;;;;;;17.10;14.30;;;;;;;10.95;49.36;100161.44;117214;1186;21976;-49
2022/04/06 05:43:51;;;;;;;21.20;14.00;;;;;;;11.10;49.45;100162.22;117319;1186;23575;-59
2022/04/06 05:46:20;;;;;;;18.80;13.50;;;;;;;11.25;49.33;100158.44;117194;1186;21854;-50
2022/04/06 05:48:48;;;;;;;17.70;13.50;;;;;;;11.42;49.36;100156.88;117116;1184;22931;-59
2022/04/06 05:51:17;;;;;;;21.30;13.70;;;;;;;11.62;49.69;100159.14;117299;1186;24165;-50
2022/04/06 05:53:46;;;;;;;20.90;13.90;;;;;;;11.80;49.67;100156.30;117205;1185;23589;-50
2022/04/06 05:56:16;;;;;;;16.10;12.90;;;;;;;11.93;49.69;100157.09;117315;1185;23554;-50
2022/04/06 05:58:46;;;;;;;13.50;11.50;;;;;;;12.13;49.62;100160.73;117227;1185;21924;-51
2022/04/06 06:01:17;;;;;;;12.40;10.30;;;;;;;12.32;49.81;100155.20;119361;1185;22122;-50
2022/04/06 06:03:46;;;;;;;14.40;9.80;;;;;;;12.52;49.65;100154.05;117454;1186;21848;-54
2022/04/06 06:06:15;;;;;;;12.30;9.10;;;;;;;12.66;49.69;100158.45;117250;1183;21866;-58
2022/04/06 06:08:43;;;;;;;11.20;8.70;;;;;;;12.82;49.72;100156.13;117279;1185;21862;-49
2022/04/06 06:11:11;;;;;;;11.10;8.20;;;;;;;12.99;49.58;100155.89;117304;1186;23450;-58
2022/04/06 06:13:42;;;;;;;12.30;9.10;;;;;;;13.21;49.50;100157.60;117315;1186;23516;-50
2022/04/06 06:16:10;;;;;;;12.60;8.30;;;;;;;13.34;49.40;100153.36;117315;1186;21838;-58
2022/04/06 06:18:39;;;;;;;11.90;9.10;;;;;;;13.53;49.36;100155.69;117136;1189;23681;-58
2022/04/06 06:21:08;;;;;;;13.50;9.40;;;;;;;13.67;49.43;100157.77;117286;1186;23547;-51
2022/04/06 06:23:37;;;;;;;11.40;8.50;;;;;;;13.82;49.44;100159.45;117112;1188;22640;-51
2022/04/06 06:26:06;;;;;;;11.60;8.90;;;;;;;13.97;49.32;100159.73;117256;1186;21975;-50
2022/04/06 06:28:35;;;;;;;14.20;9.50;;;;;;;14.12;49.32;100160.15;117198;1186;21966;-50
2022/04/06 06:31:04;;;;;;;12.00;9.00;;;;;;;14.26;49.34;100161.51;117319;1186;22005;-51
2022/04/06 06:33:33;;;;;;;11.70;8.40;;;;;;;14.41;49.33;100162.10;117165;1186;21837;-51
2022/04/06 06:36:01;;;;;;;11.10;8.50;;;;;;;14.53;49.24;100164.52;117261;1185;23571;-51
2022/04/06 06:38:30;;;;;;;12.80;8.70;;;;;;;14.64;49.27;100167.55;117228;1186;23582;-51
2022/04/06 06:40:59;;;;;;;10.60;8.30;;;;;;;14.77;49.11;100170.00;117304;1186;21859;-59
2022/04/06 06:43:28;;;;;;;13.00;8.60;;;;;;;14.89;49.09;100170.30;117279;1186;21849;-60
2022/04/06 06:45:56;;;;;;;10.70;7.40;;;;;;;15.02;48.92;100173.90;117274;1186;21969;-51
2022/04/06 06:48:25;;;;;;;10.40;6.30;;;;;;;15.19;49.12;100182.69;117260;1186;23463;-50
2022/04/06 06:50:54;;;;;;;9.00;6.90;;;;;;;15.38;49.06;100179.38;117217;1186;21882;-60
2022/04/06 06:53:23;;;;;;;7.50;6.50;;;;;;;15.56;49.13;100169.19;117306;1186;24168;-60
2022/04/06 06:55:51;;;;;;;9.40;6.60;;;;;;;15.78;49.01;100179.03;117304;1185;21848;-59
2022/04/06 06:58:20;;;;;;;8.60;6.50;;;;;;;15.95;48.89;100174.88;117264;1188;24176;-52
2022/04/06 07:00:49;;;;;;;9.80;6.70;;;;;;;16.10;48.83;100172.71;117282;1186;22971;-51
2022/04/06 07:03:18;;;;;;;8.80;6.20;;;;;;;16.25;48.78;100170.73;117273;1186;22804;-51
2022/04/06 07:05:49;;;;;;;10.90;6.20;;;;;;;16.38;48.67;100172.68;117290;1181;21892;-59
2022/04/06 07:08:20;;;;;;;6.60;5.40;;;;;;;16.55;48.46;100172.36;117238;1185;23534;-51
2022/04/06 07:11:09;;;;;;;17.00;9.90;;;;;;;16.75;48.38;100171.92;117262;1189;21851;-59
2022/04/06 07:13:37;;;;;;;10.10;5.90;;;;;;;16.93;48.20;100173.50;117291;1184;21846;-52
2022/04/06 07:16:26;;;;;;;10.70;6.30;;;;;;;17.05;48.21;100174.09;117246;1186;21853;-60
2022/04/06 07:18:56;;;;;;;15.20;9.80;;;;;;;17.17;48.13;100179.77;117294;1186;21906;-60
2022/04/06 07:21:36;;;;;;;10.80;6.60;;;;;;;17.42;48.35;100184.02;117227;1186;22807;-59
2022/04/06 07:24:05;;;;;;;9.80;6.20;;;;;;;17.65;48.28;100181.77;117324;1185;23599;-52
2022/04/06 07:26:34;;;;;;;12.30;8.40;;;;;;;17.85;48.24;100184.06;117339;1186;22787;-60
2022/04/06 07:29:03;;;;;;;7.00;5.70;;;;;;;18.05;48.19;100180.86;117384;1185;23574;-52
2022/04/06 07:31:31;;;;;;;6.60;4.90;;;;;;;18.25;48.03;100184.19;117294;1185;23522;-60
2022/04/06 07:34:14;;;;;;;8.30;5.00;;;;;;;18.43;47.87;100181.91;117276;1185;22643;-59
2022/04/06 07:36:43;;;;;;;41.80;22.00;;;;;;;18.56;47.83;100181.80;117294;1184;23555;-52
2022/04/06 07:39:12;;;;;;;23.70;14.50;;;;;;;18.70;47.74;100176.36;117305;1186;23634;-60
2022/04/06 07:41:40;;;;;;;11.70;7.80;;;;;;;18.86;47.75;100176.11;117355;1186;22929;-60
2022/04/06 07:44:09;;;;;;;9.70;5.90;;;;;;;19.02;47.61;100182.98;117336;1186;21837;-51
2022/04/06 07:46:38;;;;;;;8.00;4.80;;;;;;;19.18;47.63;100186.27;117292;1184;23552;-52
2022/04/06 07:49:07;;;;;;;13.40;7.50;;;;;;;19.32;47.56;100186.64;117249;1186;22957;-60
2022/04/06 07:51:37;;;;;;;6.70;4.80;;;;;;;19.49;47.47;100183.07;117233;1185;21899;-52
2022/04/06 07:54:06;;;;;;;6.30;4.60;;;;;;;19.61;47.29;100184.24;117708;1185;21798;-53
2022/04/06 07:56:35;;;;;;;6.40;4.60;;;;;;;19.74;47.27;100184.76;119183;1184;21855;-60
2022/04/06 07:59:03;;;;;;;5.00;3.60;;;;;;;19.86;47.12;100186.61;117362;1186;23596;-54
2022/04/06 08:01:33;;;;;;;5.30;3.90;;;;;;;19.95;47.01;100185.46;117102;1189;22627;-60
2022/04/06 08:04:02;;;;;;;4.40;3.10;;;;;;;20.04;46.82;100191.05;119268;1184;22130;-53
2022/04/06 08:06:31;;;;;;;6.40;3.30;;;;;;;20.04;46.63;100186.45;119332;1177;21761;-54
2022/04/06 08:09:19;;;;;;;5.30;3.80;;;;;;;20.07;46.62;100187.13;119318;1181;21841;-54
2022/04/06 08:11:50;;;;;;;4.70;3.20;;;;;;;20.12;46.20;100188.85;119429;1184;22264;-61
2022/04/06 08:14:38;;;;;;;4.70;3.20;;;;;;;20.10;45.89;100183.23;119304;1185;21784;-54
2022/04/06 08:17:26;;;;;;;5.20;3.20;;;;;;;20.17;46.21;100179.48;119358;1184;22319;-61
2022/04/06 08:20:16;;;;;;;4.30;2.90;;;;;;;20.44;46.44;100176.34;118359;1181;21858;-53
2022/04/06 08:22:46;;;;;;;5.80;3.20;;;;;;;20.60;46.23;100177.95;117355;1185;21854;-53
2022/04/06 08:25:15;;;;;;;5.90;3.40;;;;;;;20.66;46.01;100178.64;117198;1186;23555;-53
2022/04/06 08:28:05;;;;;;;25.50;5.10;;;;;;;20.84;46.15;100177.48;117223;1186;23537;-60
2022/04/06 08:30:40;;;;;;;4.80;2.80;;;;;;;21.10;46.17;100179.73;117311;1185;24172;-60
2022/04/06 08:33:10;;;;;;;5.50;3.30;;;;;;;21.25;46.00;100177.23;117229;1186;21893;-60
2022/04/06 08:35:40;;;;;;;6.10;2.70;;;;;;;21.35;45.78;100179.11;117174;1186;21873;-53
2022/04/06 08:38:13;;;;;;;4.30;3.30;;;;;;;21.39;45.30;100185.48;117263;1186;21840;-53
2022/04/06 08:40:42;;;;;;;5.60;3.40;;;;;;;21.36;45.30;100180.52;117319;1185;23671;-53
2022/04/06 08:43:11;;;;;;;4.60;3.00;;;;;;;21.39;45.23;100180.27;117330;1186;21849;-54
2022/04/06 08:45:40;;;;;;;4.00;2.90;;;;;;;21.50;45.26;100177.16;117304;1185;21811;-60
2022/04/06 08:48:10;;;;;;;4.00;2.90;;;;;;;21.56;45.16;100172.50;117245;1186;21903;-53
2022/04/06 08:50:41;;;;;;;4.50;3.00;;;;;;;21.60;44.80;100164.77;117233;1186;21851;-60
2022/04/06 08:53:09;;;;;;;5.20;2.80;;;;;;;21.63;44.85;100167.11;117196;1187;23598;-53
2022/04/06 08:55:39;;;;;;;6.20;2.50;;;;;;;21.68;44.44;100169.84;117292;1185;21851;-59
2022/04/06 08:58:08;;;;;;;4.10;2.80;;;;;;;21.73;44.58;100166.30;117294;1185;23572;-53
2022/04/06 09:00:36;;;;;;;4.40;2.50;;;;;;;21.81;44.67;100166.52;117270;1186;22628;-60
2022/04/06 09:03:06;;;;;;;5.60;2.70;;;;;;;21.90;44.51;100170.06;117221;1186;22920;-61
2022/04/06 09:05:37;;;;;;;3.20;2.60;;;;;;;21.96;44.12;100167.89;117220;1186;22932;-60
2022/04/06 09:08:06;;;;;;;6.10;2.80;;;;;;;21.95;44.03;100168.16;119323;1185;21792;-54
2022/04/06 09:10:55;;;;;;;4.70;2.60;;;;;;;21.97;44.29;100164.45;119337;1185;22456;-54
2022/04/06 09:13:29;;;;;;;3.90;2.40;;;;;;;22.08;44.18;100167.46;119221;1186;22114;-61
2022/04/06 09:16:18;;;;;;;9.80;3.10;;;;;;;22.23;44.03;100165.30;119447;1184;21773;-55
2022/04/06 09:18:49;;;;;;;4.40;2.60;;;;;;;22.30;43.85;100166.62;119410;1184;21760;-60
2022/04/06 09:21:18;;;;;;;4.90;2.70;;;;;;;22.19;43.77;100168.61;119389;1185;21825;-55
2022/04/06 09:23:49;;;;;;;2.80;2.10;;;;;;;22.18;43.97;100163.46;117299;1186;21849;-54
2022/04/06 09:26:21;;;;;;;3.80;2.30;;;;;;;22.37;44.06;100164.23;117388;1185;23576;-54
2022/04/06 09:28:51;;;;;;;4.10;2.60;;;;;;;22.66;43.73;100166.70;117285;1185;21879;-53
2022/04/06 09:31:20;;;;;;;2.90;2.20;;;;;;;22.84;43.60;100164.37;117304;1185;23652;-60
2022/04/06 09:33:59;;;;;;;4.70;2.60;;;;;;;22.90;43.52;100159.54;117644;1186;21848;-53
2022/04/06 09:36:30;;;;;;;5.70;2.90;;;;;;;22.96;43.61;100159.10;117373;1185;22208;-60
2022/04/06 09:38:59;;;;;;;3.20;2.30;;;;;;;23.02;43.46;100158.52;117275;1185;23451;-61
2022/04/06 09:41:30;;;;;;;3.60;2.10;;;;;;;23.15;43.46;100158.59;117207;1188;23566;-60
2022/04/06 09:50:15;;;;;;;3.40;2.50;;;;;;;23.06;42.83;100148.09;117266;1186;23553;-59
2022/04/06 09:52:51;;;;;;;4.90;2.70;;;;;;;22.96;42.31;100146.61;117218;1186;23927;-59
2022/04/06 09:55:21;;;;;;;5.30;2.60;;;;;;;22.90;42.37;100148.95;117254;1185;21978;-53
2022/04/06 09:57:53;;;;;;;3.00;2.10;;;;;;;22.91;42.45;100150.52;117259;1186;23551;-53
2022/04/06 10:00:23;;;;;;;4.00;2.60;;;;;;;22.96;42.41;100150.55;117241;1186;21935;-53
2022/04/06 10:03:03;;;;;;;5.00;2.50;;;;;;;22.90;42.14;100143.05;117286;1185;22641;-52
2022/04/06 10:05:33;;;;;;;3.50;2.40;;;;;;;22.93;42.13;100145.73;117262;1186;21852;-52
2022/04/06 10:08:07;;;;;;;4.70;2.30;;;;;;;23.02;41.96;100146.16;117282;1186;21953;-58
2022/04/06 10:10:58;;;;;;;3.80;2.60;;;;;;;23.13;41.99;100143.30;117195;1186;24175;-51
2022/04/06 10:13:27;;;;;;;3.90;2.50;;;;;;;23.15;40.89;100148.15;117263;1185;21852;-52
2022/04/06 10:16:31;;;;;;;4.30;2.60;;;;;;;23.02;40.05;100152.44;117194;1186;23557;-51
2022/04/06 10:19:00;;;;;;;4.50;2.70;;;;;;;22.93;40.57;100156.84;117293;1182;21854;-52
2022/04/06 10:21:59;;;;;;;5.40;2.40;;;;;;;22.87;40.37;100160.95;117195;1186;21851;-51
2022/04/06 10:24:51;;;;;;;3.90;2.70;;;;;;;22.93;40.65;100147.36;117235;1186;22816;-51
2022/04/06 10:27:32;;;;;;;5.00;2.40;;;;;;;23.05;40.76;100152.24;117415;1185;23576;-62
2022/04/06 10:30:23;;;;;;;3.60;2.60;;;;;;;23.14;40.26;100155.96;117060;1186;22821;-52
2022/04/06 10:32:52;;;;;;;;;;;;;;;23.19;40.44;100149.66;119395;1185;21767;-53
2022/04/06 10:35:34;;;;;;;3.80;2.90;;;;;;;23.14;40.59;100149.47;119350;1184;22259;-59
2022/04/06 10:38:02;;;;;;;6.00;3.20;;;;;;;23.19;40.73;100139.85;119341;1185;21800;-54
2022/04/06 10:40:45;;;;;;;8.00;2.90;;;;;;;23.34;41.14;100144.42;117275;1181;22809;-59
2022/04/06 10:43:34;;;;;;;;;;;;;;;23.46;40.88;100143.04;119357;1185;22314;-53
2022/04/06 10:46:09;;;;;;;4.10;2.60;;;;;;;23.51;40.79;100142.84;117223;1186;23553;-52
2022/04/06 10:49:07;;;;;;;5.00;2.60;;;;;;;23.57;40.73;100136.35;117323;1182;21938;-56
2022/04/06 10:51:37;;;;;;;3.90;2.30;;;;;;;23.74;40.31;100139.13;117306;1185;22655;-59
2022/04/06 10:54:13;;;;;;;4.30;2.80;;;;;;;23.82;39.42;100142.85;117271;1186;23563;-59
2022/04/06 10:56:48;;;;;;;4.30;2.80;;;;;;;23.79;39.40;100144.50;117409;1186;23643;-59
2022/04/06 10:59:24;;;;;;;3.10;2.30;;;;;;;23.79;39.87;100139.83;117299;1186;23557;-59
2022/04/06 11:02:25;;;;;;;3.50;2.50;;;;;;;23.76;40.02;100140.52;117251;1186;22990;-59
2022/04/06 11:04:56;;;;;;;4.00;2.70;;;;;;;23.72;39.81;100141.41;117188;1186;23586;-59
2022/04/06 11:10:22;;;;;;;5.10;2.50;;;;;;;23.74;39.62;100134.10;117285;1186;22614;-59
2022/04/06 11:12:57;;;;;;;4.40;2.70;;;;;;;23.87;39.79;100131.89;117248;1189;22830;-60
2022/04/06 11:15:37;;;;;;;3.50;2.20;;;;;;;23.95;39.59;100121.84;117162;1185;21924;-59
2022/04/06 11:18:48;;;;;;;4.70;2.30;;;;;;;23.95;39.66;100120.24;117271;1186;23471;-59
2022/04/06 11:21:17;;;;;;;;;;;;;;;24.08;39.86;100115.19;117263;1186;23991;-59
2022/04/06 11:23:45;;;;;;;4.50;2.30;;;;;;;24.23;39.77;100111.21;117270;1186;21860;-59
2022/04/06 11:26:14;;;;;;;3.60;2.20;;;;;;;24.38;39.76;100106.71;117188;1186;22807;-59
2022/04/06 11:28:44;;;;;;;6.40;2.10;;;;;;;24.46;39.45;100106.66;119166;1185;22319;-54
2022/04/06 11:31:12;;;;;;;3.80;2.50;;;;;;;24.56;39.41;100103.59;119354;1185;21782;-60
2022/04/06 11:33:42;;;;;;;4.50;2.60;;;;;;;24.65;38.00;100103.80;119193;1186;21764;-60
2022/04/06 11:36:18;;;;;;;4.60;2.60;;;;;;;24.63;38.36;100107.38;119362;1185;21793;-54
2022/04/06 11:38:51;;;;;;;5.20;2.60;;;;;;;24.50;38.38;100111.63;119408;1182;22438;-54
2022/04/06 11:41:19;;;;;;;4.30;2.70;;;;;;;24.34;38.65;100105.60;119395;1185;21783;-54
2022/04/06 11:43:50;;;;;;;5.00;2.20;;;;;;;24.40;38.83;100098.66;119353;1183;21822;-59
2022/04/06 11:46:19;;;;;;;4.40;2.50;;;;;;;24.58;38.81;100104.36;119364;1184;21762;-63
2022/04/06 11:48:48;;;;;;;4.40;2.30;;;;;;;24.56;38.07;100099.86;119368;1184;22275;-60
2022/04/06 11:51:17;;;;;;;4.10;2.70;;;;;;;24.45;37.01;100096.88;119212;1186;21784;-60